Time;durP1;ratioP1;P1;durP2;ratioP2;P2;SDS_P1;SDS_P2;PMS_P1;PMS_P2;Temp;Humidity;BMP_temperature;BMP_pressure;BME280_temperature;BME280_humidity;BME280_pressure;Samples;Min_cycle;Max_cycle;Signal;HPM_P1;HPM_P2
2021/05/20 00:00:21;;;;;;;1.67;0.77;;;10.40;99.90;;;;;;5042875;28;20680;-87
2021/05/20 00:02:48;;;;;;;5.13;1.23;;;10.50;99.90;;;;;;5034584;28;20727;-87
2021/05/20 00:05:16;;;;;;;3.47;0.80;;;10.40;99.90;;;;;;5045434;28;20682;-86
2021/05/20 00:07:44;;;;;;;1.60;0.93;;;10.40;99.90;;;;;;5057112;27;20631;-87
2021/05/20 00:10:11;;;;;;;1.40;1.10;;;10.40;99.90;;;;;;5050954;28;20666;-86
2021/05/20 00:12:38;;;;;;;1.87;0.90;;;10.30;99.90;;;;;;5045471;28;21023;-89
2021/05/20 00:15:07;;;;;;;3.70;1.10;;;10.30;99.90;;;;;;5044672;27;20666;-88
2021/05/20 00:17:33;;;;;;;4.20;1.23;;;10.30;99.90;;;;;;5054394;27;20633;-88
2021/05/20 00:20:00;;;;;;;1.90;1.10;;;10.40;99.90;;;;;;5059407;27;21312;-88
2021/05/20 00:22:28;;;;;;;0.90;0.77;;;10.40;99.90;;;;;;5041463;27;20631;-88
2021/05/20 00:24:56;;;;;;;4.43;1.20;;;10.50;99.90;;;;;;5040785;27;20634;-88
2021/05/20 00:27:22;;;;;;;1.37;0.90;;;10.40;99.90;;;;;;5046317;27;20646;-88
2021/05/20 00:29:49;;;;;;;4.50;1.00;;;10.40;99.90;;;;;;5048685;27;20668;-89
2021/05/20 00:32:18;;;;;;;1.87;1.00;;;10.40;99.90;;;;;;5051555;27;20677;-87
2021/05/20 00:34:44;;;;;;;3.33;1.00;;;10.30;99.90;;;;;;5044595;27;20629;-89
2021/05/20 00:37:10;;;;;;;1.70;0.97;;;10.40;99.90;;;;;;5037204;27;20710;-89
2021/05/20 00:39:37;;;;;;;1.13;0.97;;;10.40;99.90;;;;;;5038460;27;20662;-87
2021/05/20 00:42:08;;;;;;;1.07;0.93;;;10.40;99.90;;;;;;5048315;27;20619;-88
2021/05/20 00:44:50;;;;;;;1.27;0.60;;;10.40;99.90;;;;;;5064485;27;20966;-87
2021/05/20 00:47:18;;;;;;;3.20;1.00;;;10.50;99.90;;;;;;5023265;27;20634;-87
2021/05/20 00:49:44;;;;;;;1.37;0.80;;;10.60;99.90;;;;;;5065301;27;20776;-87
2021/05/20 00:52:10;;;;;;;4.20;1.40;;;10.50;99.90;;;;;;5056326;27;20703;-86
2021/05/20 00:54:37;;;;;;;3.87;1.40;;;10.50;99.90;;;;;;5066177;27;20645;-85
2021/05/20 00:57:04;;;;;;;0.97;0.80;;;10.50;99.90;;;;;;5046204;27;20633;-87
2021/05/20 00:59:31;;;;;;;1.47;0.90;;;10.60;99.90;;;;;;5031358;27;21582;-86
2021/05/20 01:01:59;;;;;;;1.20;1.00;;;10.60;99.90;;;;;;5035134;27;20619;-86
2021/05/20 01:04:25;;;;;;;1.10;0.93;;;10.60;99.90;;;;;;5044531;27;21211;-87
2021/05/20 01:06:52;;;;;;;2.47;1.10;;;10.60;99.90;;;;;;5053946;27;21120;-86
2021/05/20 01:09:18;;;;;;;1.83;1.13;;;10.60;99.90;;;;;;5040437;27;20634;-87
2021/05/20 01:11:45;;;;;;;0.80;0.80;;;10.50;99.90;;;;;;5040493;27;20662;-88
2021/05/20 01:14:12;;;;;;;3.70;0.90;;;10.50;99.90;;;;;;5028220;27;20638;-86
2021/05/20 01:16:39;;;;;;;1.50;1.10;;;10.50;99.90;;;;;;5048233;27;20696;-86
2021/05/20 01:19:06;;;;;;;1.13;0.90;;;10.50;99.90;;;;;;5052285;27;20648;-86
2021/05/20 01:21:33;;;;;;;1.73;1.40;;;10.50;99.90;;;;;;5040464;27;20692;-86
2021/05/20 01:23:59;;;;;;;1.10;0.80;;;10.50;99.90;;;;;;5065129;27;20626;-86
2021/05/20 01:26:28;;;;;;;1.20;0.73;;;10.50;99.90;;;;;;5041937;27;20710;-86
2021/05/20 01:28:54;;;;;;;2.93;0.77;;;10.50;99.90;;;;;;5053030;27;20631;-86
2021/05/20 01:31:21;;;;;;;1.17;0.63;;;10.60;99.90;;;;;;5041518;27;21126;-86
2021/05/20 01:33:47;;;;;;;1.23;0.90;;;10.50;99.90;;;;;;5042207;27;20618;-87
2021/05/20 01:36:13;;;;;;;0.90;0.90;;;10.50;99.90;;;;;;5038236;27;20621;-88
2021/05/20 01:38:43;;;;;;;0.90;0.63;;;10.40;99.90;;;;;;5063380;27;20623;-87
2021/05/20 01:41:11;;;;;;;3.10;1.17;;;10.40;99.90;;;;;;5069967;27;20641;-86
2021/05/20 01:43:39;;;;;;;1.13;1.00;;;10.50;99.90;;;;;;5057635;27;20619;-87
2021/05/20 01:46:06;;;;;;;2.30;0.93;;;10.50;99.90;;;;;;5050040;27;20633;-87
2021/05/20 01:48:36;;;;;;;1.93;0.87;;;10.50;99.90;;;;;;5047370;27;20637;-89
2021/05/20 01:51:04;;;;;;;4.30;1.10;;;10.40;99.90;;;;;;5038681;27;20682;-87
2021/05/20 01:53:31;;;;;;;1.80;0.73;;;10.40;99.90;;;;;;5063788;27;20626;-88
2021/05/20 01:55:59;;;;;;;3.83;1.50;;;10.40;99.90;;;;;;5074460;27;20627;-87
2021/05/20 01:58:25;;;;;;;1.50;1.00;;;10.30;99.90;;;;;;5037050;27;21249;-87
2021/05/20 02:00:52;;;;;;;1.40;1.10;;;10.30;99.90;;;;;;5030273;27;20653;-88
2021/05/20 02:03:18;;;;;;;1.30;1.00;;;10.30;99.90;;;;;;5040049;27;20999;-88
2021/05/20 02:05:45;;;;;;;1.53;0.73;;;10.20;99.90;;;;;;5059299;27;20619;-87
2021/05/20 02:08:11;;;;;;;3.57;0.77;;;10.10;99.90;;;;;;5052016;27;20626;-87
2021/05/20 02:10:38;;;;;;;2.10;1.10;;;10.10;99.90;;;;;;5054633;27;21177;-88
2021/05/20 02:13:05;;;;;;;1.33;0.80;;;10.20;99.90;;;;;;5068789;27;20618;-87
2021/05/20 02:15:31;;;;;;;1.60;1.10;;;10.20;99.90;;;;;;5054629;27;20631;-88
2021/05/20 02:17:58;;;;;;;1.23;0.80;;;10.20;99.90;;;;;;5041575;27;20696;-88
2021/05/20 02:20:24;;;;;;;2.60;1.10;;;10.30;99.90;;;;;;5042225;27;20661;-88
2021/05/20 02:22:51;;;;;;;1.40;0.87;;;10.20;99.90;;;;;;5043142;27;20641;-88
2021/05/20 02:25:17;;;;;;;2.03;0.73;;;10.10;99.90;;;;;;5048295;27;20587;-88
2021/05/20 02:27:44;;;;;;;1.60;0.93;;;10.10;99.90;;;;;;5042270;27;20631;-88
2021/05/20 02:30:13;;;;;;;1.20;0.80;;;10.10;99.90;;;;;;5052648;27;20750;-88
2021/05/20 02:32:40;;;;;;;1.03;0.97;;;10.00;99.90;;;;;;5063315;27;20614;-89
2021/05/20 02:35:09;;;;;;;1.83;1.23;;;10.00;99.90;;;;;;5056402;27;20645;-88
2021/05/20 02:37:35;;;;;;;2.63;1.10;;;10.00;99.90;;;;;;5045031;27;20678;-87
2021/05/20 02:40:03;;;;;;;1.30;0.87;;;10.00;99.90;;;;;;5048934;27;20677;-88
2021/05/20 02:42:30;;;;;;;2.00;0.77;;;10.00;99.90;;;;;;5041245;28;20635;-87
2021/05/20 02:44:56;;;;;;;1.80;0.83;;;10.00;99.90;;;;;;5042413;27;20626;-87
2021/05/20 02:47:26;;;;;;;1.63;1.10;;;10.00;99.90;;;;;;5040027;27;20634;-87
2021/05/20 02:49:52;;;;;;;1.20;1.10;;;9.80;99.90;;;;;;5066755;27;21300;-88
2021/05/20 02:52:19;;;;;;;1.43;1.17;;;9.90;99.90;;;;;;5066375;27;20768;-87
2021/05/20 02:54:45;;;;;;;1.40;1.07;;;9.80;99.90;;;;;;5052793;27;20631;-87
2021/05/20 02:57:12;;;;;;;1.37;0.97;;;9.90;99.90;;;;;;5057949;27;20627;-88
2021/05/20 02:59:38;;;;;;;3.43;1.00;;;9.80;99.90;;;;;;5071939;27;20669;-86
2021/05/20 03:02:06;;;;;;;2.60;1.20;;;9.80;99.90;;;;;;5049975;27;20619;-88
2021/05/20 03:04:35;;;;;;;1.47;0.80;;;9.70;99.90;;;;;;5040672;27;20634;-88
2021/05/20 03:07:03;;;;;;;0.97;0.80;;;9.80;99.90;;;;;;5042220;27;20630;-88
2021/05/20 03:09:30;;;;;;;1.67;1.00;;;9.80;99.90;;;;;;5051180;27;21204;-88
2021/05/20 03:11:59;;;;;;;1.40;1.30;;;9.80;99.90;;;;;;5048316;27;20758;-88
2021/05/20 03:14:28;;;;;;;1.10;1.00;;;9.70;99.90;;;;;;5041051;27;20630;-88
2021/05/20 03:16:55;;;;;;;2.00;0.90;;;9.70;99.90;;;;;;5043536;27;20610;-89
2021/05/20 03:19:21;;;;;;;1.00;0.90;;;9.80;99.90;;;;;;5053170;27;21184;-87
2021/05/20 03:21:50;;;;;;;2.00;1.17;;;9.70;99.90;;;;;;5034562;27;20618;-88
2021/05/20 03:24:17;;;;;;;1.90;1.00;;;9.70;99.90;;;;;;5050199;27;20668;-87
2021/05/20 03:26:43;;;;;;;2.07;0.90;;;9.80;99.90;;;;;;5043138;27;20633;-86
2021/05/20 03:29:10;;;;;;;2.17;1.50;;;9.80;99.90;;;;;;5065559;27;20626;-87
2021/05/20 03:31:36;;;;;;;0.80;0.80;;;9.60;99.90;;;;;;5045351;27;21248;-87
2021/05/20 03:34:03;;;;;;;1.20;0.80;;;9.60;99.90;;;;;;5053372;27;20784;-87
2021/05/20 03:36:30;;;;;;;1.03;0.93;;;9.60;99.90;;;;;;5065366;27;21333;-87
2021/05/20 03:38:57;;;;;;;1.97;1.20;;;9.70;99.90;;;;;;5053380;27;21127;-87
2021/05/20 03:41:25;;;;;;;0.60;0.60;;;9.80;99.90;;;;;;5041669;27;21316;-86
2021/05/20 03:43:52;;;;;;;2.10;0.83;;;9.70;99.90;;;;;;5037558;28;20727;-87
2021/05/20 03:46:19;;;;;;;2.87;1.20;;;9.70;99.90;;;;;;5036698;28;20713;-87
2021/05/20 03:48:46;;;;;;;1.00;0.90;;;9.60;99.90;;;;;;5052185;28;20706;-86
2021/05/20 03:51:12;;;;;;;2.07;1.20;;;9.80;99.90;;;;;;5038663;27;20681;-86
2021/05/20 03:53:39;;;;;;;2.70;1.10;;;9.80;99.90;;;;;;5048592;27;20614;-87
2021/05/20 03:56:06;;;;;;;1.77;1.10;;;9.80;99.90;;;;;;5051977;27;20617;-87
2021/05/20 03:58:32;;;;;;;1.40;0.80;;;9.80;99.90;;;;;;5047741;27;20974;-87
2021/05/20 04:00:59;;;;;;;1.07;1.00;;;9.80;99.90;;;;;;5060971;28;21231;-85
2021/05/20 04:03:27;;;;;;;1.77;0.97;;;9.80;99.90;;;;;;5037293;28;20634;-86
2021/05/20 04:05:56;;;;;;;1.20;0.90;;;9.70;99.90;;;;;;5056921;28;20627;-87
2021/05/20 04:08:22;;;;;;;1.50;0.90;;;9.60;99.90;;;;;;5042388;28;20656;-87
2021/05/20 04:10:50;;;;;;;1.90;1.27;;;9.60;99.90;;;;;;5054085;28;20694;-87
2021/05/20 04:13:28;;;;;;;1.20;1.10;;;9.70;99.90;;;;;;5029945;28;21501;-87
2021/05/20 04:15:55;;;;;;;2.23;0.97;;;9.60;99.90;;;;;;5046135;27;21023;-87
2021/05/20 04:18:22;;;;;;;1.97;1.10;;;9.60;99.90;;;;;;5050442;28;20627;-87
2021/05/20 04:20:49;;;;;;;1.03;0.90;;;9.70;99.90;;;;;;5046523;27;20678;-86
2021/05/20 04:23:16;;;;;;;1.30;1.03;;;9.70;99.90;;;;;;5045774;28;20625;-87
2021/05/20 04:25:43;;;;;;;1.40;1.27;;;9.70;99.90;;;;;;5029650;27;20695;-87
2021/05/20 04:28:10;;;;;;;2.70;1.50;;;9.70;99.90;;;;;;5052317;27;20626;-86
2021/05/20 04:30:37;;;;;;;2.17;0.80;;;9.70;99.90;;;;;;5038132;28;20992;-86
2021/05/20 04:33:04;;;;;;;1.87;1.30;;;9.80;99.90;;;;;;5056224;27;20666;-86
2021/05/20 04:35:32;;;;;;;2.40;1.10;;;9.90;99.90;;;;;;5041847;28;21003;-86
2021/05/20 04:37:58;;;;;;;1.73;1.20;;;9.90;99.90;;;;;;5046051;27;20626;-86
2021/05/20 04:40:24;;;;;;;1.73;1.20;;;9.90;99.90;;;;;;5040210;28;20679;-86
2021/05/20 04:42:51;;;;;;;1.63;1.03;;;9.80;99.90;;;;;;5041147;28;20669;-86
2021/05/20 04:45:17;;;;;;;1.43;1.30;;;9.80;99.90;;;;;;5060258;28;20662;-87
2021/05/20 04:47:45;;;;;;;1.10;1.00;;;9.80;99.90;;;;;;5030471;28;20646;-86
2021/05/20 04:50:12;;;;;;;1.17;1.07;;;9.90;99.90;;;;;;5039689;28;20646;-87
2021/05/20 04:52:39;;;;;;;1.43;1.10;;;10.00;99.90;;;;;;5048449;27;20665;-86
2021/05/20 04:55:06;;;;;;;1.37;1.27;;;9.90;99.90;;;;;;5053763;28;20633;-86
2021/05/20 04:57:33;;;;;;;2.73;1.30;;;10.00;99.90;;;;;;5044603;28;20637;-86
2021/05/20 05:00:00;;;;;;;4.10;1.37;;;9.90;99.90;;;;;;5054826;27;20646;-86
2021/05/20 05:02:27;;;;;;;1.50;1.27;;;10.00;99.90;;;;;;5040512;27;20630;-87
2021/05/20 05:04:56;;;;;;;1.70;1.23;;;10.00;99.90;;;;;;5055365;27;20660;-87
2021/05/20 05:07:22;;;;;;;1.53;1.17;;;10.10;99.90;;;;;;5056874;27;20868;-87
2021/05/20 05:09:49;;;;;;;1.37;1.00;;;10.10;99.90;;;;;;5059329;27;20668;-86
2021/05/20 05:12:15;;;;;;;3.73;1.70;;;10.00;99.90;;;;;;5057009;27;20745;-86
2021/05/20 05:14:43;;;;;;;2.93;1.27;;;10.00;99.90;;;;;;5079057;27;20986;-87
2021/05/20 05:17:09;;;;;;;3.87;1.43;;;10.10;99.90;;;;;;5050877;27;20633;-87
2021/05/20 05:19:36;;;;;;;1.07;1.00;;;10.00;99.90;;;;;;5058514;27;20658;-87
2021/05/20 05:22:04;;;;;;;1.27;1.17;;;10.10;99.90;;;;;;5054457;27;20627;-87
2021/05/20 05:24:31;;;;;;;3.73;1.53;;;10.20;99.90;;;;;;5061556;27;21005;-87
2021/05/20 05:26:58;;;;;;;1.03;1.03;;;10.20;99.90;;;;;;5065150;27;20626;-88
2021/05/20 05:29:25;;;;;;;1.73;1.23;;;10.20;99.90;;;;;;5074660;27;20650;-86
2021/05/20 05:31:51;;;;;;;2.70;1.20;;;10.30;99.90;;;;;;5056514;27;20773;-86
2021/05/20 05:34:19;;;;;;;1.97;1.30;;;10.30;99.90;;;;;;5073154;27;20626;-86
2021/05/20 05:36:45;;;;;;;3.60;1.10;;;10.30;99.90;;;;;;5053817;27;20636;-87
2021/05/20 05:39:13;;;;;;;1.73;1.20;;;10.50;99.90;;;;;;5043863;27;20648;-87
2021/05/20 05:41:40;;;;;;;1.33;1.20;;;10.50;99.90;;;;;;5040094;27;20698;-87
2021/05/20 05:44:07;;;;;;;1.47;1.17;;;10.60;99.90;;;;;;5048856;27;20630;-87
2021/05/20 05:46:35;;;;;;;1.77;0.70;;;10.70;99.90;;;;;;5048890;27;20637;-87
2021/05/20 05:49:11;;;;;;;1.27;1.13;;;11.00;99.90;;;;;;5041856;27;20688;-86
2021/05/20 05:51:45;;;;;;;1.30;1.20;;;11.10;99.90;;;;;;5054536;27;21209;-88
2021/05/20 05:54:15;;;;;;;3.40;1.10;;;11.20;99.90;;;;;;5042469;27;20670;-87
2021/05/20 05:56:41;;;;;;;1.20;1.10;;;11.20;99.90;;;;;;5046599;27;20680;-88
2021/05/20 05:59:08;;;;;;;1.53;1.03;;;11.40;99.90;;;;;;5037991;27;20634;-85
2021/05/20 06:01:35;;;;;;;2.20;1.30;;;11.50;99.90;;;;;;5047599;27;21147;-86
2021/05/20 06:04:01;;;;;;;1.43;1.10;;;11.40;99.90;;;;;;5048680;27;20875;-86
2021/05/20 06:06:28;;;;;;;1.40;1.30;;;11.30;99.90;;;;;;5048861;27;20639;-87
2021/05/20 06:08:56;;;;;;;2.30;1.07;;;11.10;99.90;;;;;;5070361;27;20615;-87
2021/05/20 06:11:23;;;;;;;1.73;0.90;;;11.20;99.90;;;;;;5045803;27;20682;-86
2021/05/20 06:13:49;;;;;;;1.10;1.00;;;11.10;99.90;;;;;;5040479;27;20631;-88
2021/05/20 06:16:16;;;;;;;1.90;1.30;;;11.10;99.90;;;;;;5043980;27;20638;-86
2021/05/20 06:18:43;;;;;;;1.60;1.27;;;11.20;99.90;;;;;;5054236;27;21203;-88
2021/05/20 06:21:09;;;;;;;1.73;0.97;;;11.30;99.90;;;;;;5033049;27;20634;-88
2021/05/20 06:23:35;;;;;;;1.77;1.10;;;11.30;99.90;;;;;;5051291;27;20621;-88
2021/05/20 06:26:04;;;;;;;1.00;0.80;;;11.30;99.90;;;;;;5046282;27;20627;-88
2021/05/20 06:28:31;;;;;;;1.00;0.90;;;11.40;99.90;;;;;;5045742;27;21380;-87
2021/05/20 06:30:58;;;;;;;2.10;1.10;;;11.50;99.90;;;;;;5055441;27;20685;-87
2021/05/20 06:33:24;;;;;;;2.20;2.10;;;11.70;99.90;;;;;;5053415;27;20595;-87
2021/05/20 06:35:51;;;;;;;0.97;0.90;;;11.80;99.90;;;;;;5059889;27;20631;-87
2021/05/20 06:38:17;;;;;;;0.60;0.60;;;11.90;99.90;;;;;;5041287;27;20651;-87
2021/05/20 06:40:44;;;;;;;0.90;0.70;;;12.00;99.90;;;;;;5054087;27;21010;-87
2021/05/20 06:43:10;;;;;;;0.97;0.93;;;12.00;99.90;;;;;;5036650;27;20727;-87
2021/05/20 06:45:37;;;;;;;1.67;1.23;;;11.80;99.90;;;;;;5052359;27;20635;-87
2021/05/20 06:48:04;;;;;;;1.03;0.83;;;11.70;99.90;;;;;;5059050;27;21017;-87
2021/05/20 06:50:30;;;;;;;1.00;0.90;;;11.70;99.90;;;;;;5061634;27;20658;-88
2021/05/20 06:52:58;;;;;;;1.80;0.90;;;11.50;99.90;;;;;;5068899;27;21168;-88
2021/05/20 06:55:28;;;;;;;1.87;1.10;;;11.50;99.90;;;;;;5041657;27;20643;-87
2021/05/20 07:00:40;;;;;;;4.50;4.10;;;11.50;99.90;;;;;;5052637;27;20687;-87
2021/05/20 07:03:14;;;;;;;1.80;1.70;;;11.50;99.90;;;;;;5051434;27;20663;-87
2021/05/20 07:05:40;;;;;;;2.50;1.60;;;11.70;99.90;;;;;;5049710;27;20713;-88
2021/05/20 07:08:08;;;;;;;1.90;0.87;;;11.90;99.90;;;;;;5042643;27;20622;-87
2021/05/20 07:10:34;;;;;;;1.80;1.13;;;12.00;99.90;;;;;;5066461;27;20662;-87
2021/05/20 07:13:01;;;;;;;1.10;0.90;;;12.60;99.90;;;;;;5049551;27;20631;-88
2021/05/20 07:15:29;;;;;;;1.97;1.23;;;12.70;99.90;;;;;;5077043;27;20634;-88
2021/05/20 07:17:58;;;;;;;1.43;0.80;;;12.90;99.90;;;;;;5047476;27;20638;-88
2021/05/20 07:20:25;;;;;;;0.83;0.83;;;13.10;99.90;;;;;;5041000;27;21180;-88
2021/05/20 07:22:54;;;;;;;3.90;1.00;;;13.10;99.90;;;;;;5067881;27;20621;-89
2021/05/20 07:25:22;;;;;;;1.60;0.93;;;13.00;99.90;;;;;;5077436;27;20633;-86
2021/05/20 07:27:51;;;;;;;1.37;1.00;;;13.60;99.90;;;;;;5063535;27;20890;-87
2021/05/20 07:30:19;;;;;;;2.40;0.80;;;14.20;99.90;;;;;;5050998;27;20627;-89
2021/05/20 07:32:46;;;;;;;3.13;0.70;;;14.20;99.90;;;;;;5058995;27;20678;-88
2021/05/20 07:35:13;;;;;;;1.20;0.80;;;14.20;99.90;;;;;;5051465;27;20666;-90
2021/05/20 07:37:40;;;;;;;0.80;0.80;;;14.20;99.90;;;;;;5035097;27;21024;-89
2021/05/20 07:40:07;;;;;;;1.07;0.80;;;13.90;99.90;;;;;;5035841;28;20630;-87
2021/05/20 07:42:34;;;;;;;0.77;0.77;;;13.80;99.90;;;;;;5035894;28;20659;-88
2021/05/20 07:45:01;;;;;;;1.10;0.90;;;13.80;99.90;;;;;;5044818;28;21078;-88
2021/05/20 07:47:28;;;;;;;1.70;1.03;;;13.70;99.90;;;;;;5044210;28;20635;-88
2021/05/20 07:49:54;;;;;;;1.97;0.90;;;13.50;99.90;;;;;;5045002;28;20640;-87
2021/05/20 07:52:22;;;;;;;1.10;1.00;;;13.50;99.90;;;;;;5040052;28;20691;-88
2021/05/20 07:54:51;;;;;;;1.60;1.13;;;13.30;99.90;;;;;;5053850;28;20665;-87
2021/05/20 07:57:20;;;;;;;2.20;1.00;;;13.10;99.90;;;;;;5072587;27;20634;-87
2021/05/20 07:59:46;;;;;;;1.37;1.27;;;13.10;99.90;;;;;;5068906;28;20634;-87
2021/05/20 08:02:17;;;;;;;1.17;0.90;;;13.20;99.90;;;;;;5049584;28;20655;-89
2021/05/20 08:04:46;;;;;;;1.80;0.93;;;13.20;99.90;;;;;;5040907;27;20638;-89
2021/05/20 08:07:29;;;;;;;1.73;1.20;;;13.20;99.90;;;;;;5029456;28;20642;-90
2021/05/20 08:10:12;;;;;;;1.20;1.10;;;13.50;99.90;;;;;;5037832;28;20688;-88
2021/05/20 08:12:38;;;;;;;1.10;1.00;;;13.50;99.90;;;;;;5035449;28;20766;-90
2021/05/20 08:15:15;;;;;;;1.83;1.03;;;13.60;99.90;;;;;;5075263;28;20664;-91
2021/05/20 08:17:42;;;;;;;1.30;1.03;;;14.20;99.90;;;;;;5061318;28;20652;-90
2021/05/20 08:20:09;;;;;;;2.20;1.07;;;14.90;99.90;;;;;;5044478;28;20699;-91
2021/05/20 08:22:37;;;;;;;1.30;1.00;;;15.40;99.90;;;;;;5075195;27;22150;-89
2021/05/20 08:25:10;;;;;;;1.33;1.00;;;15.10;99.90;;;;;;5102225;27;20658;-90
2021/05/20 08:27:37;;;;;;;0.80;0.80;;;14.50;99.90;;;;;;5042690;28;20638;-90
2021/05/20 08:30:26;;;;;;;1.03;0.60;;;14.40;99.90;;;;;;5030774;28;20671;-94
2021/05/20 08:32:53;;;;;;;1.67;1.03;;;14.40;99.90;;;;;;5042213;28;20666;-89
2021/05/20 08:35:19;;;;;;;1.13;0.90;;;14.20;99.90;;;;;;5028069;28;20598;-86
2021/05/20 08:37:45;;;;;;;0.70;0.70;;;14.00;99.90;;;;;;5036809;27;20626;-85
2021/05/20 08:40:13;;;;;;;0.80;0.70;;;13.90;99.90;;;;;;5049501;27;20611;-86
2021/05/20 08:42:42;;;;;;;0.73;0.73;;;14.00;99.90;;;;;;5057412;27;20694;-84
2021/05/20 08:45:11;;;;;;;1.43;0.60;;;14.20;99.90;;;;;;5060785;27;20631;-85
2021/05/20 08:47:38;;;;;;;0.90;0.80;;;14.20;99.90;;;;;;5046366;27;21106;-85
2021/05/20 08:50:07;;;;;;;2.73;1.17;;;14.20;99.90;;;;;;5047780;28;20575;-88
2021/05/20 08:52:36;;;;;;;1.23;0.90;;;14.60;99.90;;;;;;5052305;27;20681;-88
2021/05/20 08:55:04;;;;;;;2.17;1.00;;;14.80;99.90;;;;;;5043662;27;20733;-88
2021/05/20 08:57:32;;;;;;;1.00;0.90;;;15.30;99.90;;;;;;5046852;27;20619;-88
2021/05/20 08:59:58;;;;;;;1.43;0.90;;;15.10;99.90;;;;;;5036186;27;21280;-88
2021/05/20 09:02:26;;;;;;;1.03;0.73;;;15.20;99.90;;;;;;5052089;27;20682;-90
2021/05/20 09:05:00;;;;;;;1.30;0.90;;;15.60;99.90;;;;;;5077447;27;20657;-91
2021/05/20 09:07:34;;;;;;;1.43;1.27;;;15.90;99.30;;;;;;5059352;27;20611;-93
2021/05/20 09:10:17;;;;;;;2.63;1.17;;;16.10;98.70;;;;;;5041357;27;20758;-93
2021/05/20 09:12:53;;;;;;;1.10;0.90;;;16.40;99.30;;;;;;5044074;27;20843;-92
2021/05/20 09:15:29;;;;;;;1.07;0.97;;;16.50;98.60;;;;;;5078077;27;20641;-91
2021/05/20 09:18:03;;;;;;;1.10;0.80;;;16.20;99.90;;;;;;5042981;27;20716;-90
2021/05/20 09:20:38;;;;;;;1.97;0.80;;;16.00;99.50;;;;;;5070382;27;20646;-92
2021/05/20 09:23:10;;;;;;;1.27;1.00;;;15.70;99.90;;;;;;5057326;27;20570;-92
2021/05/20 09:25:39;;;;;;;0.93;0.80;;;16.30;99.00;;;;;;5046372;27;20661;-91
2021/05/20 09:28:11;;;;;;;1.13;1.00;;;16.10;98.70;;;;;;5053551;27;20627;-91
2021/05/20 09:30:44;;;;;;;1.00;0.50;;;15.80;98.90;;;;;;5048253;27;20641;-91
2021/05/20 09:33:16;;;;;;;0.73;0.50;;;16.00;98.70;;;;;;5059277;27;20674;-90
2021/05/20 09:35:46;;;;;;;1.13;0.67;;;16.30;97.30;;;;;;5077361;27;20671;-92
2021/05/20 09:38:18;;;;;;;0.87;0.60;;;16.00;97.80;;;;;;5035390;27;21169;-95
2021/05/20 09:40:46;;;;;;;1.37;0.67;;;15.90;97.50;;;;;;5043893;27;20639;-90
2021/05/20 09:43:18;;;;;;;1.60;0.60;;;15.50;97.60;;;;;;5053437;27;20965;-88
2021/05/20 09:45:46;;;;;;;0.90;0.67;;;15.60;97.50;;;;;;5052508;27;20657;-87
2021/05/20 09:48:13;;;;;;;0.97;0.77;;;15.40;97.10;;;;;;5051933;27;20651;-89
2021/05/20 09:50:42;;;;;;;1.03;0.53;;;15.40;97.50;;;;;;5053110;27;21143;-89
2021/05/20 09:53:10;;;;;;;1.17;0.67;;;15.30;97.50;;;;;;5061912;27;20753;-88
2021/05/20 09:55:43;;;;;;;1.37;1.27;;;15.30;98.50;;;;;;5039308;27;20785;-87
2021/05/20 09:58:09;;;;;;;0.90;0.70;;;15.40;98.50;;;;;;5040215;27;20646;-88
2021/05/20 10:00:37;;;;;;;0.90;0.60;;;15.30;98.50;;;;;;5055267;27;20630;-87
2021/05/20 10:03:05;;;;;;;1.17;0.70;;;15.20;98.30;;;;;;5040274;27;21064;-88
2021/05/20 10:05:34;;;;;;;0.97;0.90;;;15.30;98.90;;;;;;5041415;27;20654;-87
2021/05/20 10:08:03;;;;;;;0.97;0.87;;;15.20;99.50;;;;;;5041322;27;20640;-88
2021/05/20 10:10:30;;;;;;;1.17;0.90;;;15.40;99.10;;;;;;5038418;28;20620;-88
2021/05/20 10:12:56;;;;;;;1.03;0.70;;;15.30;99.10;;;;;;5048210;27;20662;-89
2021/05/20 10:15:24;;;;;;;1.00;0.90;;;15.80;97.20;;;;;;5051510;27;20658;-87
2021/05/20 10:17:52;;;;;;;2.37;1.00;;;15.90;97.80;;;;;;5040740;27;21063;-88
2021/05/20 10:20:23;;;;;;;0.87;0.67;;;16.00;96.60;;;;;;5062956;27;20663;-90
2021/05/20 10:22:50;;;;;;;1.10;0.63;;;16.10;96.80;;;;;;5070616;27;20619;-89
2021/05/20 10:25:18;;;;;;;1.80;0.50;;;16.40;95.90;;;;;;5039955;27;20624;-89
2021/05/20 10:27:44;;;;;;;0.60;0.40;;;16.50;95.70;;;;;;5055664;27;20625;-88
2021/05/20 10:30:16;;;;;;;0.97;0.60;;;17.10;95.20;;;;;;5066205;27;20647;-88
2021/05/20 10:32:44;;;;;;;0.73;0.53;;;17.90;93.10;;;;;;5040514;27;21063;-88
2021/05/20 10:35:13;;;;;;;3.17;0.80;;;17.90;92.90;;;;;;5048266;27;20631;-89
2021/05/20 10:37:42;;;;;;;1.23;0.60;;;17.80;92.30;;;;;;5058748;27;20629;-88
2021/05/20 10:40:27;;;;;;;1.47;0.80;;;17.80;92.80;;;;;;5041727;27;20669;-88
2021/05/20 10:43:11;;;;;;;0.80;0.60;;;17.70;93.30;;;;;;5039012;27;21241;-88
2021/05/20 10:45:38;;;;;;;1.00;0.80;;;17.80;93.00;;;;;;5051201;27;20643;-88
2021/05/20 10:48:21;;;;;;;1.13;1.03;;;17.60;93.50;;;;;;5055866;27;20622;-88
2021/05/20 10:51:14;;;;;;;2.90;0.70;;;17.50;94.20;;;;;;5033612;27;20663;-89
2021/05/20 10:54:09;;;;;;;0.70;0.60;;;18.70;93.00;;;;;;5033447;27;20695;-90
2021/05/20 10:56:54;;;;;;;1.07;0.70;;;18.80;91.00;;;;;;5042860;27;20639;-89
2021/05/20 10:59:38;;;;;;;2.93;0.77;;;18.60;91.70;;;;;;5044065;27;20638;-89
2021/05/20 11:02:05;;;;;;;1.23;0.60;;;18.30;90.80;;;;;;5058089;27;20622;-89
2021/05/20 11:04:36;;;;;;;1.00;0.80;;;18.30;92.00;;;;;;5029837;27;20704;-88
2021/05/20 11:07:03;;;;;;;1.83;0.83;;;18.20;90.70;;;;;;5057417;27;20642;-89
2021/05/20 11:09:51;;;;;;;4.60;0.80;;;17.80;92.20;;;;;;5072654;27;20645;-89
2021/05/20 11:12:18;;;;;;;1.73;0.80;;;17.80;92.10;;;;;;5072753;27;20662;-88
2021/05/20 11:14:51;;;;;;;0.80;0.73;;;17.40;91.40;;;;;;5049302;27;20637;-87
2021/05/20 11:17:38;;;;;;;4.87;0.80;;;17.20;92.40;;;;;;5055883;27;20638;-89
2021/05/20 11:20:45;;;;;;;1.90;0.90;;;17.00;92.50;;;;;;5044745;27;20770;-89
2021/05/20 11:23:30;;;;;;;1.03;0.73;;;16.70;92.20;;;;;;5048562;27;20283;-88
2021/05/20 11:26:09;;;;;;;2.93;0.60;;;16.70;92.90;;;;;;5027231;27;20642;-89
2021/05/20 11:28:42;;;;;;;1.30;0.70;;;16.70;93.00;;;;;;5039033;27;20626;-89
2021/05/20 11:31:10;;;;;;;2.07;0.90;;;16.80;92.50;;;;;;5042595;27;20687;-89
2021/05/20 11:34:06;;;;;;;0.73;0.73;;;16.80;93.00;;;;;;5045979;27;20635;-90
2021/05/20 11:36:42;;;;;;;1.23;0.70;;;16.60;93.70;;;;;;5026443;28;20650;-89
2021/05/20 11:39:14;;;;;;;1.20;0.90;;;16.60;93.40;;;;;;5029422;28;20646;-89
2021/05/20 11:41:43;;;;;;;1.90;1.70;;;16.40;94.30;;;;;;5032873;27;20655;-90
2021/05/20 11:44:15;;;;;;;1.20;0.80;;;16.60;94.40;;;;;;5038012;28;21061;-89
2021/05/20 11:46:49;;;;;;;1.33;0.60;;;16.60;94.60;;;;;;5050949;28;20639;-90
2021/05/20 11:49:19;;;;;;;3.63;0.60;;;16.30;94.40;;;;;;5041468;28;20635;-90
2021/05/20 11:51:58;;;;;;;0.70;0.60;;;16.30;94.70;;;;;;5060224;28;20646;-88
2021/05/20 11:54:29;;;;;;;0.73;0.50;;;15.90;94.80;;;;;;5044590;28;21072;-89
2021/05/20 11:57:01;;;;;;;0.83;0.80;;;15.80;95.70;;;;;;5041498;27;20729;-89
2021/05/20 11:59:44;;;;;;;0.90;0.77;;;16.10;94.90;;;;;;5036936;27;21357;-90
2021/05/20 12:02:14;;;;;;;1.33;0.90;;;16.20;94.00;;;;;;5058169;28;20626;-88
2021/05/20 12:04:42;;;;;;;2.20;0.70;;;16.20;94.50;;;;;;5036574;28;20635;-89
2021/05/20 12:07:17;;;;;;;1.80;0.83;;;16.10;95.30;;;;;;5040812;27;20630;-89
2021/05/20 12:09:45;;;;;;;1.40;0.60;;;16.20;95.30;;;;;;5055715;27;20659;-88
2021/05/20 12:12:12;;;;;;;1.57;1.00;;;16.30;94.80;;;;;;5067311;27;20661;-89
2021/05/20 12:14:43;;;;;;;1.63;0.77;;;16.50;93.50;;;;;;5070893;27;20693;-87
2021/05/20 12:17:13;;;;;;;0.70;0.70;;;16.50;93.80;;;;;;5059311;27;20622;-89
2021/05/20 12:19:43;;;;;;;4.43;0.90;;;16.60;94.20;;;;;;5040169;27;21232;-88
2021/05/20 12:22:23;;;;;;;0.70;0.50;;;16.80;95.00;;;;;;5046633;27;20629;-87
2021/05/20 12:24:52;;;;;;;1.23;0.83;;;17.00;93.80;;;;;;5040309;27;20697;-88
2021/05/20 12:27:21;;;;;;;1.47;0.67;;;17.70;92.90;;;;;;5062700;27;20638;-88
2021/05/20 12:29:50;;;;;;;1.87;1.27;;;18.20;90.90;;;;;;5061518;27;21661;-88
2021/05/20 12:32:34;;;;;;;1.30;0.70;;;18.40;90.20;;;;;;5044384;27;20653;-88
2021/05/20 12:35:21;;;;;;;1.43;0.83;;;18.60;90.10;;;;;;5046036;27;20688;-89
2021/05/20 12:37:54;;;;;;;0.73;0.70;;;19.60;87.70;;;;;;5017280;27;20617;-88
2021/05/20 12:40:27;;;;;;;4.20;0.87;;;20.50;83.10;;;;;;5026469;27;20885;-89
2021/05/20 12:43:20;;;;;;;1.07;0.87;;;20.90;84.60;;;;;;5031808;27;20721;-89
2021/05/20 12:45:53;;;;;;;0.50;0.40;;;21.60;80.30;;;;;;5038496;27;20685;-89
2021/05/20 12:48:31;;;;;;;2.27;1.30;;;20.70;81.20;;;;;;5020424;28;20645;-88
2021/05/20 12:51:00;;;;;;;1.10;0.80;;;19.40;85.50;;;;;;5031736;27;20761;-89
2021/05/20 12:53:29;;;;;;;1.13;0.50;;;19.50;87.40;;;;;;5029165;27;20670;-88
2021/05/20 12:56:01;;;;;;;1.80;0.60;;;19.30;84.40;;;;;;5031452;27;20646;-89
2021/05/20 12:58:52;;;;;;;1.10;1.00;;;20.80;81.80;;;;;;5031579;27;20658;-89
2021/05/20 13:01:20;;;;;;;0.77;0.50;;;20.50;82.30;;;;;;5028908;27;20622;-90